createdAt,value
2019-03-18T00:00:56.346Z,0.47
2019-03-18T00:03:23.780Z,0.57
2019-03-18T00:05:51.504Z,0.83
2019-03-18T00:08:18.995Z,0.67
2019-03-18T00:10:46.616Z,0.70
2019-03-18T00:13:14.089Z,0.80
2019-03-18T00:15:41.722Z,1.20
2019-03-18T00:18:09.246Z,0.60
2019-03-18T00:20:36.753Z,0.63
2019-03-18T00:23:04.314Z,0.70
2019-03-18T00:25:31.844Z,0.70
2019-03-18T00:27:59.511Z,0.70
2019-03-18T00:30:27.013Z,0.90
2019-03-18T00:32:54.448Z,1.00
2019-03-18T00:35:21.895Z,1.03
2019-03-18T00:37:49.371Z,0.70
2019-03-18T00:40:18.058Z,1.00
2019-03-18T00:42:45.672Z,0.63
2019-03-18T00:45:15.792Z,0.90
2019-03-18T00:47:43.453Z,1.17
2019-03-18T00:50:10.994Z,0.73
2019-03-18T00:52:39.494Z,0.90
2019-03-18T00:55:07.280Z,0.70
2019-03-18T00:57:34.729Z,1.27
2019-03-18T01:00:04.647Z,0.70
2019-03-18T01:02:33.377Z,0.60
2019-03-18T01:05:00.809Z,0.80
2019-03-18T01:07:28.322Z,1.10
2019-03-18T01:09:55.769Z,0.53
2019-03-18T01:12:23.252Z,0.60
2019-03-18T01:14:50.699Z,0.43
2019-03-18T01:17:18.138Z,0.80
2019-03-18T01:19:45.601Z,0.40
2019-03-18T01:22:13.125Z,0.90
2019-03-18T01:24:40.577Z,0.50
2019-03-18T01:27:08.023Z,0.90
2019-03-18T01:29:35.524Z,0.50
2019-03-18T01:32:03.024Z,0.73
2019-03-18T01:34:30.466Z,0.50
2019-03-18T01:36:58.541Z,0.60
2019-03-18T01:39:26.045Z,0.70
2019-03-18T01:41:53.506Z,0.70
2019-03-18T01:44:20.978Z,0.97
2019-03-18T01:46:48.483Z,0.50
2019-03-18T01:49:15.968Z,0.73
2019-03-18T01:51:43.917Z,0.47
2019-03-18T01:54:11.342Z,0.50
2019-03-18T01:56:38.990Z,0.60
2019-03-18T01:59:06.482Z,0.47
2019-03-18T02:01:33.921Z,0.60
2019-03-18T02:04:01.365Z,0.67
2019-03-18T02:06:28.850Z,0.77
2019-03-18T02:08:56.368Z,0.50
2019-03-18T02:11:23.866Z,0.40
2019-03-18T02:13:51.381Z,0.60
2019-03-18T02:16:19.828Z,0.50
2019-03-18T02:18:47.278Z,0.53
2019-03-18T02:21:14.825Z,0.70
2019-03-18T02:23:42.281Z,0.70
2019-03-18T02:26:09.742Z,0.57
2019-03-18T02:28:37.223Z,0.80
2019-03-18T02:31:04.676Z,1.00
2019-03-18T02:33:32.216Z,0.40
2019-03-18T02:35:59.766Z,0.83
2019-03-18T02:38:27.471Z,0.50
2019-03-18T02:40:54.943Z,0.77
2019-03-18T02:43:22.407Z,0.50
2019-03-18T02:45:49.931Z,0.70
2019-03-18T02:48:17.380Z,0.63
2019-03-18T02:50:44.851Z,1.30
2019-03-18T02:53:12.462Z,0.60
2019-03-18T02:55:39.961Z,0.80
2019-03-18T02:58:07.547Z,0.67
2019-03-18T03:00:34.998Z,0.50
2019-03-18T03:03:02.566Z,0.80
2019-03-18T03:05:29.993Z,0.50
2019-03-18T03:07:57.438Z,0.77
2019-03-18T03:10:24.989Z,0.70
2019-03-18T03:12:52.590Z,0.80
2019-03-18T03:15:20.055Z,0.60
2019-03-18T03:17:47.873Z,0.70
2019-03-18T03:20:15.318Z,0.70
2019-03-18T03:22:42.992Z,0.60
2019-03-18T03:25:10.691Z,0.70
2019-03-18T03:27:38.270Z,0.60
2019-03-18T03:30:06.506Z,0.87
2019-03-18T03:32:34.099Z,0.80
2019-03-18T03:35:01.854Z,0.80
2019-03-18T03:37:29.491Z,0.80
2019-03-18T03:39:56.929Z,0.73
2019-03-18T03:42:24.381Z,0.97
2019-03-18T03:44:51.873Z,1.20
2019-03-18T03:47:19.753Z,0.50
2019-03-18T03:49:47.299Z,1.03
2019-03-18T03:52:14.777Z,1.07
2019-03-18T03:54:42.405Z,0.63
2019-03-18T03:57:09.992Z,0.50
2019-03-18T03:59:37.756Z,1.03
2019-03-18T04:02:05.214Z,0.93
2019-03-18T04:04:32.743Z,0.60
2019-03-18T04:07:00.260Z,0.57
2019-03-18T04:09:27.756Z,0.50
2019-03-18T04:11:55.325Z,1.00
2019-03-18T04:14:22.807Z,0.83
2019-03-18T04:17:01.568Z,1.00
2019-03-18T04:19:20.701Z,0.80
2019-03-18T04:21:50.550Z,1.00
2019-03-18T04:24:17.877Z,0.80
2019-03-18T04:26:45.306Z,1.07
2019-03-18T04:29:12.848Z,0.83
2019-03-18T04:31:40.258Z,1.00
2019-03-18T04:34:07.896Z,0.50
2019-03-18T04:36:35.392Z,1.20
2019-03-18T04:39:03.862Z,0.97
2019-03-18T04:41:31.365Z,1.33
2019-03-18T04:43:58.843Z,1.40
2019-03-18T04:46:26.297Z,1.30
2019-03-18T04:48:53.872Z,1.10
2019-03-18T04:51:21.552Z,1.13
2019-03-18T04:53:48.990Z,1.40
2019-03-18T04:56:16.518Z,0.93
2019-03-18T04:58:43.993Z,0.80
2019-03-18T05:01:11.524Z,0.97
2019-03-18T05:03:39.041Z,1.23
2019-03-18T05:06:06.592Z,1.00
2019-03-18T05:08:34.058Z,1.00
2019-03-18T05:11:01.630Z,0.90
2019-03-18T05:13:29.101Z,0.93
2019-03-18T05:15:56.673Z,0.70
2019-03-18T05:18:24.229Z,1.07
2019-03-18T05:20:51.723Z,1.20
2019-03-18T05:23:19.179Z,1.10
2019-03-18T05:25:46.677Z,1.37
2019-03-18T05:28:14.942Z,0.90
2019-03-18T05:30:42.552Z,0.97
2019-03-18T05:33:10.130Z,0.90
2019-03-18T05:35:37.606Z,1.13
2019-03-18T05:38:05.084Z,1.47
2019-03-18T05:40:32.675Z,1.13
2019-03-18T05:43:00.157Z,1.00
2019-03-18T05:45:27.597Z,1.10
2019-03-18T05:47:55.078Z,1.13
2019-03-18T05:50:22.520Z,0.90
2019-03-18T05:52:50.056Z,1.10
2019-03-18T05:55:17.514Z,1.00
2019-03-18T05:57:44.970Z,1.50
2019-03-18T06:00:12.433Z,1.20
2019-03-18T06:02:39.919Z,1.50
2019-03-18T06:05:07.438Z,1.40
2019-03-18T06:07:34.942Z,2.03
2019-03-18T06:10:02.541Z,2.00
2019-03-18T06:12:30.005Z,1.17
2019-03-18T06:14:57.461Z,1.10
2019-03-18T06:17:24.900Z,0.90
2019-03-18T06:19:52.416Z,1.57
2019-03-18T06:22:19.914Z,1.23
2019-03-18T06:24:47.350Z,1.10
2019-03-18T06:27:14.858Z,1.00
2019-03-18T06:29:42.370Z,0.97
2019-03-18T06:32:09.866Z,1.17
2019-03-18T06:34:37.367Z,1.10
2019-03-18T06:37:04.917Z,1.47
2019-03-18T06:39:32.393Z,1.20
2019-03-18T06:41:59.899Z,1.27
2019-03-18T06:44:27.399Z,1.10
2019-03-18T06:46:54.982Z,1.30
2019-03-18T06:49:22.519Z,1.77
2019-03-18T06:51:49.994Z,2.33
2019-03-18T06:54:17.444Z,1.40
2019-03-18T06:56:45.142Z,1.23
2019-03-18T06:59:12.634Z,1.60
2019-03-18T07:01:40.179Z,1.43
2019-03-18T07:04:07.914Z,1.33
2019-03-18T07:06:36.678Z,1.27
2019-03-18T07:09:05.727Z,1.57
2019-03-18T07:11:33.375Z,2.20
2019-03-18T07:14:00.945Z,1.50
2019-03-18T07:16:28.434Z,1.20
2019-03-18T07:18:56.117Z,1.50
2019-03-18T07:21:23.605Z,1.27
2019-03-18T07:23:51.062Z,2.67
2019-03-18T07:26:18.578Z,1.23
2019-03-18T07:28:46.069Z,1.60
2019-03-18T07:34:06.089Z,2.50
2019-03-18T07:36:33.822Z,1.40
2019-03-18T07:39:01.259Z,1.93
2019-03-18T07:41:29.822Z,1.80
2019-03-18T07:43:57.278Z,1.73
2019-03-18T07:46:24.809Z,2.03
2019-03-18T07:48:52.302Z,1.73
2019-03-18T07:51:19.785Z,1.80
2019-03-18T07:53:47.272Z,1.80
2019-03-18T07:56:15.098Z,1.43
2019-03-18T07:58:42.742Z,2.17
2019-03-18T08:01:10.217Z,1.80
2019-03-18T08:03:37.688Z,1.57
2019-03-18T08:06:05.231Z,3.00
2019-03-18T08:08:32.807Z,1.83
2019-03-18T08:11:01.432Z,1.90
2019-03-18T08:13:28.977Z,1.77
2019-03-18T08:15:56.413Z,2.70
2019-03-18T08:18:24.067Z,1.90
2019-03-18T08:20:51.618Z,2.50
2019-03-18T08:23:19.211Z,1.50
2019-03-18T08:25:46.718Z,2.43
2019-03-18T08:28:14.736Z,1.57
2019-03-18T08:30:42.268Z,1.47
2019-03-18T08:33:10.782Z,1.47
2019-03-18T08:35:38.226Z,2.10
2019-03-18T08:38:05.751Z,1.33
2019-03-18T08:40:33.245Z,2.20
2019-03-18T08:43:00.820Z,2.60
2019-03-18T08:45:28.394Z,2.10
2019-03-18T08:47:55.852Z,1.40
2019-03-18T08:50:23.305Z,2.03
2019-03-18T08:52:50.948Z,1.10
2019-03-18T08:55:18.545Z,1.40
2019-03-18T08:57:45.982Z,1.40
2019-03-18T09:00:13.445Z,1.33
2019-03-18T09:02:40.909Z,1.90
2019-03-18T09:05:08.937Z,1.10
2019-03-18T09:07:36.476Z,0.83
2019-03-18T09:10:05.180Z,0.93
2019-03-18T09:12:32.834Z,1.53
2019-03-18T09:15:01.434Z,1.00
2019-03-18T09:17:28.949Z,1.10
2019-03-18T09:19:56.399Z,0.90
2019-03-18T09:22:23.849Z,0.80
2019-03-18T09:24:52.374Z,1.40
2019-03-18T09:27:19.824Z,1.10
2019-03-18T09:29:47.330Z,0.90
2019-03-18T09:32:14.937Z,0.90
2019-03-18T09:34:42.441Z,1.00
2019-03-18T09:37:10.125Z,0.90
2019-03-18T09:39:38.696Z,0.90
2019-03-18T09:42:06.326Z,1.57
2019-03-18T09:44:33.776Z,1.10
2019-03-18T09:47:02.302Z,0.90
2019-03-18T09:49:29.742Z,1.40
2019-03-18T09:51:57.316Z,1.13
2019-03-18T09:54:24.791Z,1.10
2019-03-18T09:56:52.303Z,0.80
2019-03-18T09:59:19.953Z,1.00
2019-03-18T10:01:47.493Z,1.10
2019-03-18T10:04:14.978Z,1.00
2019-03-18T10:06:42.587Z,1.03
2019-03-18T10:09:10.197Z,1.27
2019-03-18T10:11:37.930Z,1.27
2019-03-18T10:14:05.610Z,1.20
2019-03-18T10:16:33.162Z,0.90
2019-03-18T10:19:00.669Z,1.10
2019-03-18T10:21:28.332Z,1.10
2019-03-18T10:23:55.881Z,1.20
2019-03-18T10:26:23.563Z,0.80
2019-03-18T10:28:52.084Z,1.30
2019-03-18T10:31:20.822Z,0.90
2019-03-18T10:33:48.350Z,0.90
2019-03-18T10:36:16.030Z,1.10
2019-03-18T10:38:44.651Z,1.20
2019-03-18T10:41:12.174Z,1.10
2019-03-18T10:43:39.773Z,0.83
2019-03-18T10:46:07.379Z,0.87
2019-03-18T10:48:35.327Z,1.13
2019-03-18T10:51:02.948Z,0.90
2019-03-18T10:53:30.497Z,0.90
2019-03-18T10:56:07.177Z,1.00
2019-03-18T10:58:27.966Z,1.00
2019-03-18T11:00:55.677Z,1.23
2019-03-18T11:03:23.358Z,0.83
2019-03-18T11:05:51.077Z,0.80
2019-03-18T11:08:22.282Z,1.00
2019-03-18T11:10:50.400Z,1.07
2019-03-18T11:13:18.122Z,0.60
2019-03-18T11:15:45.776Z,1.30
2019-03-18T11:18:13.246Z,0.70
2019-03-18T11:20:40.845Z,0.80
2019-03-18T11:23:08.395Z,0.80
2019-03-18T11:25:36.960Z,1.00
2019-03-18T11:28:04.493Z,1.10
2019-03-18T11:30:32.050Z,1.00
2019-03-18T11:32:59.566Z,1.00
2019-03-18T11:35:27.182Z,1.30
2019-03-18T11:37:54.648Z,0.90
2019-03-18T11:40:23.314Z,1.07
2019-03-18T11:42:51.084Z,0.50
2019-03-18T11:45:19.449Z,1.10
2019-03-18T11:47:47.382Z,0.93
2019-03-18T11:50:14.866Z,0.80
2019-03-18T11:52:42.312Z,1.57
2019-03-18T11:55:11.323Z,1.00
2019-03-18T11:57:38.816Z,0.50
2019-03-18T12:00:07.445Z,1.33
2019-03-18T12:02:35.898Z,0.97
2019-03-18T12:05:04.078Z,1.00
2019-03-18T12:07:31.619Z,0.90
2019-03-18T12:09:59.185Z,0.90
2019-03-18T12:12:26.680Z,0.40
2019-03-18T12:14:54.148Z,0.70
2019-03-18T12:17:22.076Z,0.67
2019-03-18T12:19:49.566Z,0.90
2019-03-18T12:22:17.039Z,0.60
2019-03-18T12:24:44.514Z,0.50
2019-03-18T12:27:12.119Z,0.67
2019-03-18T12:29:39.558Z,0.50
2019-03-18T12:32:07.006Z,0.50
2019-03-18T12:34:34.555Z,0.70
2019-03-18T12:37:07.302Z,0.50
2019-03-18T12:39:37.431Z,0.50
2019-03-18T12:42:05.079Z,0.87
2019-03-18T12:44:32.652Z,0.93
2019-03-18T12:47:00.126Z,0.57
2019-03-18T12:49:27.592Z,0.90
2019-03-18T12:51:55.069Z,0.97
2019-03-18T12:54:22.627Z,1.13
2019-03-18T12:56:50.156Z,0.50
2019-03-18T12:59:17.628Z,6.30
2019-03-18T13:01:45.213Z,0.47
2019-03-18T13:04:13.037Z,0.73
2019-03-18T13:06:40.579Z,0.53
2019-03-18T13:09:08.325Z,0.87
2019-03-18T13:11:35.821Z,0.70
2019-03-18T13:14:03.425Z,1.30
2019-03-18T13:16:30.930Z,1.53
2019-03-18T13:18:58.443Z,0.60
2019-03-18T13:21:26.287Z,0.60
2019-03-18T13:23:54.115Z,0.90
2019-03-18T13:26:21.835Z,0.80
2019-03-18T13:28:51.122Z,1.10
2019-03-18T13:31:20.372Z,0.80
2019-03-18T13:33:47.862Z,0.70
2019-03-18T13:36:15.530Z,1.07
2019-03-18T13:38:43.267Z,0.90
2019-03-18T13:41:10.909Z,0.60
2019-03-18T13:43:40.080Z,0.70
2019-03-18T13:46:08.490Z,0.70
2019-03-18T13:48:36.639Z,1.00
2019-03-18T13:51:04.327Z,0.90
2019-03-18T13:53:31.905Z,0.73
2019-03-18T13:55:59.465Z,0.60
2019-03-18T13:58:29.062Z,0.73
2019-03-18T14:00:57.570Z,0.87
2019-03-18T14:03:26.484Z,0.60
2019-03-18T14:05:54.324Z,1.30
2019-03-18T14:08:21.875Z,1.17
2019-03-18T14:10:49.620Z,0.77
2019-03-18T14:13:17.448Z,0.90
2019-03-18T14:15:45.223Z,1.23
2019-03-18T14:18:12.922Z,0.70
2019-03-18T14:20:40.651Z,1.07
2019-03-18T14:23:08.227Z,0.80
2019-03-18T14:25:35.821Z,0.73
2019-03-18T14:28:03.395Z,0.80
2019-03-18T14:30:30.996Z,0.90
2019-03-18T14:32:58.565Z,1.20
2019-03-18T14:35:26.269Z,0.70
2019-03-18T14:37:53.930Z,0.80
2019-03-18T14:40:21.491Z,0.90
2019-03-18T14:42:49.001Z,1.07
2019-03-18T14:45:16.815Z,0.70
2019-03-18T14:47:44.430Z,0.70
2019-03-18T14:50:12.384Z,1.00
2019-03-18T14:52:41.037Z,1.10
2019-03-18T14:55:10.177Z,1.00
2019-03-18T14:57:38.237Z,0.50
2019-03-18T15:00:10.099Z,0.30
2019-03-18T15:02:37.762Z,0.30
2019-03-18T15:05:06.785Z,0.40
2019-03-18T15:07:34.439Z,0.60
2019-03-18T15:10:02.463Z,0.30
2019-03-18T15:12:30.566Z,0.50
2019-03-18T15:14:58.186Z,0.50
2019-03-18T15:17:25.768Z,0.50
2019-03-18T15:19:53.434Z,0.43
2019-03-18T15:22:21.954Z,0.60
2019-03-18T15:24:49.523Z,0.70
2019-03-18T15:27:17.215Z,0.57
2019-03-18T15:29:44.960Z,0.30
2019-03-18T15:32:12.716Z,0.33
2019-03-18T15:34:40.336Z,0.80
2019-03-18T15:37:08.249Z,0.70
2019-03-18T15:39:36.721Z,0.40
2019-03-18T15:42:04.569Z,0.80
2019-03-18T15:44:33.305Z,0.53
2019-03-18T15:47:00.939Z,0.90
2019-03-18T15:49:28.700Z,0.60
2019-03-18T15:51:56.302Z,0.80
2019-03-18T15:54:23.851Z,1.20
2019-03-18T15:56:51.610Z,2.50
2019-03-18T15:59:19.339Z,1.10
2019-03-18T16:01:47.086Z,0.50
2019-03-18T16:04:14.813Z,0.80
2019-03-18T16:06:42.321Z,0.97
2019-03-18T16:09:09.888Z,0.70
2019-03-18T16:11:37.642Z,0.60
2019-03-18T16:14:05.906Z,0.60
2019-03-18T16:16:33.586Z,0.50
2019-03-18T16:19:01.276Z,0.77
2019-03-18T16:21:29.028Z,0.60
2019-03-18T16:23:57.316Z,0.83
2019-03-18T16:26:25.046Z,1.10
2019-03-18T16:28:52.741Z,1.07
2019-03-18T16:31:20.277Z,1.07
2019-03-18T16:33:47.874Z,1.17
2019-03-18T16:36:15.482Z,1.00
2019-03-18T16:38:43.001Z,0.93
2019-03-18T16:41:10.735Z,1.00
2019-03-18T16:43:38.376Z,0.80
2019-03-18T16:46:06.344Z,1.03
2019-03-18T16:48:33.918Z,1.10
2019-03-18T16:51:01.546Z,1.30
2019-03-18T16:53:29.182Z,1.17
2019-03-18T16:55:57.288Z,1.10
2019-03-18T16:58:25.247Z,0.80
2019-03-18T17:00:52.844Z,1.13
2019-03-18T17:03:20.439Z,1.30
2019-03-18T17:05:48.034Z,1.40
2019-03-18T17:08:15.767Z,1.40
2019-03-18T17:10:43.389Z,1.00
2019-03-18T17:13:10.999Z,0.70
2019-03-18T17:15:38.559Z,1.20
2019-03-18T17:18:06.194Z,1.60
2019-03-18T17:20:33.832Z,1.33
2019-03-18T17:23:01.380Z,0.83
2019-03-18T17:25:29.223Z,0.70
2019-03-18T17:27:56.901Z,0.80
2019-03-18T17:30:26.702Z,2.13
2019-03-18T17:32:55.043Z,2.73
2019-03-18T17:35:22.880Z,4.67
2019-03-18T17:37:51.975Z,3.93
2019-03-18T17:40:24.808Z,3.00
2019-03-18T17:42:53.360Z,20.17
2019-03-18T17:45:24.256Z,14.17
2019-03-18T17:47:52.533Z,23.37
2019-03-18T17:50:27.268Z,5.73
2019-03-18T17:53:03.142Z,15.40
2019-03-18T17:55:32.478Z,16.93
2019-03-18T17:58:04.166Z,0.90
2019-03-18T18:00:43.791Z,0.70
2019-03-18T18:03:20.436Z,0.90
2019-03-18T18:05:52.553Z,1.17
2019-03-18T18:08:20.290Z,10.07
2019-03-18T18:10:48.103Z,5.93
2019-03-18T18:13:16.521Z,0.80
2019-03-18T18:15:44.100Z,1.37
2019-03-18T18:18:12.878Z,1.00
2019-03-18T18:20:40.449Z,1.53
2019-03-18T18:23:14.172Z,2.00
2019-03-18T18:25:38.338Z,2.10
2019-03-18T18:28:06.023Z,1.17
2019-03-18T18:30:33.663Z,1.93
2019-03-18T18:33:01.570Z,1.90
2019-03-18T18:35:29.176Z,1.70
2019-03-18T18:37:56.790Z,1.93
2019-03-18T18:40:24.759Z,2.37
2019-03-18T18:42:52.459Z,3.50
2019-03-18T18:45:21.255Z,7.30
2019-03-18T18:47:49.186Z,11.53
2019-03-18T18:50:17.437Z,2.20
2019-03-18T18:52:45.089Z,2.40
2019-03-18T18:55:12.827Z,2.10
2019-03-18T18:57:40.526Z,2.70
2019-03-18T19:00:10.742Z,3.13
2019-03-18T19:02:38.358Z,1.97
2019-03-18T19:05:06.942Z,2.30
2019-03-18T19:07:34.489Z,2.00
2019-03-18T19:10:02.128Z,2.40
2019-03-18T19:12:29.856Z,2.50
2019-03-18T19:14:57.567Z,2.50
2019-03-18T19:17:25.474Z,2.30
2019-03-18T19:19:53.265Z,2.60
2019-03-18T19:22:21.047Z,3.20
2019-03-18T19:24:48.693Z,2.67
2019-03-18T19:27:16.546Z,4.50
2019-03-18T19:29:44.279Z,3.80
2019-03-18T19:32:12.045Z,4.43
2019-03-18T19:34:39.790Z,3.03
2019-03-18T19:37:07.503Z,2.80
2019-03-18T19:39:35.054Z,2.20
2019-03-18T19:42:02.817Z,4.80
2019-03-18T19:44:30.637Z,2.10
2019-03-18T19:46:58.383Z,3.13
2019-03-18T19:49:25.968Z,2.77
2019-03-18T19:51:53.472Z,3.10
2019-03-18T19:54:21.122Z,4.23
2019-03-18T19:56:48.837Z,3.50
2019-03-18T19:59:16.481Z,3.40
2019-03-18T20:01:44.324Z,3.83
2019-03-18T20:04:12.026Z,3.13
2019-03-18T20:06:39.691Z,2.10
2019-03-18T20:09:07.505Z,2.90
2019-03-18T20:11:35.256Z,2.33
2019-03-18T20:14:02.935Z,1.47
2019-03-18T20:16:30.616Z,1.60
2019-03-18T20:18:58.272Z,1.20
2019-03-18T20:21:26.796Z,1.00
2019-03-18T20:24:00.853Z,1.10
2019-03-18T20:26:24.193Z,1.00
2019-03-18T20:28:51.882Z,1.53
2019-03-18T20:31:25.770Z,1.20
2019-03-18T20:33:49.047Z,1.83
2019-03-18T20:36:16.506Z,1.60
2019-03-18T20:38:44.062Z,1.30
2019-03-18T20:41:11.640Z,1.90
2019-03-18T20:43:39.152Z,1.80
2019-03-18T20:46:06.815Z,2.03
2019-03-18T20:48:34.504Z,2.40
2019-03-18T20:51:02.388Z,3.50
2019-03-18T20:53:30.162Z,2.90
2019-03-18T20:55:57.726Z,3.33
2019-03-18T20:58:25.360Z,4.20
2019-03-18T21:00:53.151Z,3.60
2019-03-18T21:03:20.777Z,3.73
2019-03-18T21:05:48.320Z,4.93
2019-03-18T21:08:15.967Z,4.70
2019-03-18T21:10:47.436Z,4.70
2019-03-18T21:13:17.145Z,4.57
2019-03-18T21:15:45.966Z,4.03
2019-03-18T21:18:13.702Z,4.47
2019-03-18T21:20:41.362Z,5.00
2019-03-18T21:23:09.030Z,5.10
2019-03-18T21:25:36.645Z,5.77
2019-03-18T21:28:04.553Z,5.60
2019-03-18T21:30:32.428Z,4.73
2019-03-18T21:33:00.172Z,5.10
2019-03-18T21:35:28.255Z,5.50
2019-03-18T21:37:55.841Z,5.23
2019-03-18T21:40:23.422Z,6.27
2019-03-18T21:42:51.267Z,6.40
2019-03-18T21:45:18.910Z,5.63
2019-03-18T21:47:46.792Z,5.23
2019-03-18T21:50:14.445Z,7.30
2019-03-18T21:52:41.990Z,7.40
2019-03-18T21:55:09.752Z,6.77
2019-03-18T21:57:37.323Z,6.03
2019-03-18T22:00:05.246Z,5.60
2019-03-18T22:02:33.852Z,6.83
2019-03-18T22:05:01.777Z,4.83
2019-03-18T22:07:29.581Z,5.60
2019-03-18T22:09:57.176Z,6.90
2019-03-18T22:12:24.670Z,8.83
2019-03-18T22:14:52.260Z,10.13
2019-03-18T22:17:19.718Z,10.73
2019-03-18T22:19:47.186Z,10.70
2019-03-18T22:22:14.706Z,9.30
2019-03-18T22:24:45.673Z,7.53
2019-03-18T22:27:11.869Z,6.93
2019-03-18T22:29:39.721Z,7.07
2019-03-18T22:32:07.611Z,5.60
2019-03-18T22:34:35.336Z,6.70
2019-03-18T22:37:02.880Z,5.93
2019-03-18T22:39:30.478Z,5.97
2019-03-18T22:41:58.002Z,8.37
2019-03-18T22:44:25.552Z,6.77
2019-03-18T22:46:53.021Z,5.73
2019-03-18T22:49:20.488Z,6.30
2019-03-18T22:51:48.118Z,7.47
2019-03-18T22:54:15.666Z,7.67
2019-03-18T22:56:43.340Z,6.90
2019-03-18T22:59:10.886Z,9.70
2019-03-18T23:01:38.733Z,11.70
2019-03-18T23:04:06.280Z,9.80
2019-03-18T23:06:33.814Z,11.17
2019-03-18T23:09:01.562Z,12.27
2019-03-18T23:11:30.151Z,10.40
2019-03-18T23:13:57.686Z,10.63
2019-03-18T23:16:25.349Z,10.97
2019-03-18T23:18:52.933Z,11.10
2019-03-18T23:21:20.402Z,10.10
2019-03-18T23:23:48.001Z,8.73
2019-03-18T23:26:15.493Z,6.30
2019-03-18T23:28:43.045Z,6.40
2019-03-18T23:31:10.766Z,7.10
2019-03-18T23:33:38.260Z,7.80
2019-03-18T23:36:05.941Z,7.70
2019-03-18T23:38:33.964Z,8.50
2019-03-18T23:41:01.460Z,7.40
2019-03-18T23:43:29.076Z,8.57
2019-03-18T23:45:56.559Z,7.27
2019-03-18T23:48:24.046Z,8.03
2019-03-18T23:50:51.678Z,9.80
2019-03-18T23:53:19.377Z,8.77
2019-03-18T23:55:47.946Z,8.03
2019-03-18T23:58:15.502Z,8.47
